sensor_id;sensor_type;location;lat;lon;timestamp;P1;durP1;ratioP1;P2;durP2;ratioP2
47778;SDS011;33538;48.432;11.350;2023-08-30T00:01:16;7.85;;;4.40;;
47778;SDS011;33538;48.432;11.350;2023-08-30T00:03:43;6.22;;;4.32;;
47778;SDS011;33538;48.432;11.350;2023-08-30T00:06:11;5.90;;;3.78;;
47778;SDS011;33538;48.432;11.350;2023-08-30T00:08:38;6.28;;;4.15;;
47778;SDS011;33538;48.432;11.350;2023-08-30T00:11:05;7.90;;;4.95;;
47778;SDS011;33538;48.432;11.350;2023-08-30T00:13:32;8.73;;;4.70;;
47778;SDS011;33538;48.432;11.350;2023-08-30T00:16:00;7.18;;;4.75;;
47778;SDS011;33538;48.432;11.350;2023-08-30T00:18:27;6.07;;;4.70;;
47778;SDS011;33538;48.432;11.350;2023-08-30T00:20:54;7.38;;;4.32;;
47778;SDS011;33538;48.432;11.350;2023-08-30T00:23:21;8.40;;;5.32;;
47778;SDS011;33538;48.432;11.350;2023-08-30T00:25:47;8.32;;;5.15;;
47778;SDS011;33538;48.432;11.350;2023-08-30T00:28:14;9.32;;;5.50;;
47778;SDS011;33538;48.432;11.350;2023-08-30T00:30:41;7.72;;;5.28;;
47778;SDS011;33538;48.432;11.350;2023-08-30T00:33:09;9.73;;;5.28;;
47778;SDS011;33538;48.432;11.350;2023-08-30T00:35:36;8.45;;;5.38;;
47778;SDS011;33538;48.432;11.350;2023-08-30T00:38:03;8.57;;;5.95;;
47778;SDS011;33538;48.432;11.350;2023-08-30T00:40:32;7.97;;;5.38;;
47778;SDS011;33538;48.432;11.350;2023-08-30T00:45:30;8.20;;;5.93;;
47778;SDS011;33538;48.432;11.350;2023-08-30T00:47:58;10.73;;;6.18;;
47778;SDS011;33538;48.432;11.350;2023-08-30T00:50:26;8.82;;;5.75;;
47778;SDS011;33538;48.432;11.350;2023-08-30T00:52:53;10.55;;;6.32;;
47778;SDS011;33538;48.432;11.350;2023-08-30T00:55:20;11.90;;;5.43;;
47778;SDS011;33538;48.432;11.350;2023-08-30T00:57:46;9.98;;;5.47;;
47778;SDS011;33538;48.432;11.350;2023-08-30T01:00:14;9.10;;;6.15;;
47778;SDS011;33538;48.432;11.350;2023-08-30T01:02:41;8.52;;;5.47;;
47778;SDS011;33538;48.432;11.350;2023-08-30T01:05:08;7.35;;;4.85;;
47778;SDS011;33538;48.432;11.350;2023-08-30T01:07:36;10.40;;;6.80;;
47778;SDS011;33538;48.432;11.350;2023-08-30T01:10:03;11.18;;;5.93;;
47778;SDS011;33538;48.432;11.350;2023-08-30T01:12:33;10.00;;;6.60;;
47778;SDS011;33538;48.432;11.350;2023-08-30T01:15:06;9.60;;;5.90;;
47778;SDS011;33538;48.432;11.350;2023-08-30T01:17:37;10.68;;;6.53;;
47778;SDS011;33538;48.432;11.350;2023-08-30T01:20:06;10.80;;;6.70;;
47778;SDS011;33538;48.432;11.350;2023-08-30T01:22:39;11.63;;;6.97;;
47778;SDS011;33538;48.432;11.350;2023-08-30T01:25:25;10.35;;;6.47;;
47778;SDS011;33538;48.432;11.350;2023-08-30T01:27:59;9.10;;;5.88;;
47778;SDS011;33538;48.432;11.350;2023-08-30T01:30:29;11.95;;;6.05;;
47778;SDS011;33538;48.432;11.350;2023-08-30T01:32:58;9.95;;;6.10;;
47778;SDS011;33538;48.432;11.350;2023-08-30T01:35:27;11.80;;;6.72;;
47778;SDS011;33538;48.432;11.350;2023-08-30T01:37:55;10.38;;;6.70;;
47778;SDS011;33538;48.432;11.350;2023-08-30T01:40:23;8.95;;;5.82;;
47778;SDS011;33538;48.432;11.350;2023-08-30T01:42:50;10.25;;;6.28;;
47778;SDS011;33538;48.432;11.350;2023-08-30T01:45:19;10.88;;;6.40;;
47778;SDS011;33538;48.432;11.350;2023-08-30T01:47:46;10.43;;;6.43;;
47778;SDS011;33538;48.432;11.350;2023-08-30T01:50:15;16.00;;;7.43;;
47778;SDS011;33538;48.432;11.350;2023-08-30T01:52:42;9.52;;;6.32;;
47778;SDS011;33538;48.432;11.350;2023-08-30T01:55:09;9.75;;;6.18;;
47778;SDS011;33538;48.432;11.350;2023-08-30T01:57:39;10.05;;;6.38;;
47778;SDS011;33538;48.432;11.350;2023-08-30T02:00:07;9.27;;;5.82;;
47778;SDS011;33538;48.432;11.350;2023-08-30T02:02:36;12.43;;;6.85;;
47778;SDS011;33538;48.432;11.350;2023-08-30T02:05:03;12.85;;;6.35;;
47778;SDS011;33538;48.432;11.350;2023-08-30T02:07:33;11.35;;;6.78;;
47778;SDS011;33538;48.432;11.350;2023-08-30T02:10:05;9.88;;;6.15;;
47778;SDS011;33538;48.432;11.350;2023-08-30T02:12:48;9.48;;;6.43;;
47778;SDS011;33538;48.432;11.350;2023-08-30T02:15:18;12.17;;;7.10;;
47778;SDS011;33538;48.432;11.350;2023-08-30T02:17:49;12.27;;;7.00;;
47778;SDS011;33538;48.432;11.350;2023-08-30T02:20:16;10.20;;;6.90;;
47778;SDS011;33538;48.432;11.350;2023-08-30T02:22:43;12.23;;;7.20;;
47778;SDS011;33538;48.432;11.350;2023-08-30T02:25:10;10.30;;;6.32;;
47778;SDS011;33538;48.432;11.350;2023-08-30T02:27:37;9.98;;;6.20;;
47778;SDS011;33538;48.432;11.350;2023-08-30T02:30:04;11.07;;;6.32;;
47778;SDS011;33538;48.432;11.350;2023-08-30T02:32:32;12.82;;;6.93;;
47778;SDS011;33538;48.432;11.350;2023-08-30T02:35:01;11.40;;;7.13;;
47778;SDS011;33538;48.432;11.350;2023-08-30T02:37:28;11.13;;;6.88;;
47778;SDS011;33538;48.432;11.350;2023-08-30T02:39:55;10.27;;;6.07;;
47778;SDS011;33538;48.432;11.350;2023-08-30T02:42:22;9.48;;;5.57;;
47778;SDS011;33538;48.432;11.350;2023-08-30T02:44:49;10.85;;;6.68;;
47778;SDS011;33538;48.432;11.350;2023-08-30T02:47:15;11.38;;;6.55;;
47778;SDS011;33538;48.432;11.350;2023-08-30T02:49:42;12.20;;;7.28;;
47778;SDS011;33538;48.432;11.350;2023-08-30T02:52:10;12.90;;;7.00;;
47778;SDS011;33538;48.432;11.350;2023-08-30T02:54:37;13.52;;;7.40;;
47778;SDS011;33538;48.432;11.350;2023-08-30T02:57:04;11.98;;;6.60;;
47778;SDS011;33538;48.432;11.350;2023-08-30T02:59:31;10.82;;;6.85;;
47778;SDS011;33538;48.432;11.350;2023-08-30T03:01:57;11.95;;;6.72;;
47778;SDS011;33538;48.432;11.350;2023-08-30T03:04:24;11.35;;;6.88;;
47778;SDS011;33538;48.432;11.350;2023-08-30T03:06:51;13.40;;;7.05;;
47778;SDS011;33538;48.432;11.350;2023-08-30T03:09:19;13.13;;;7.13;;
47778;SDS011;33538;48.432;11.350;2023-08-30T03:11:46;11.30;;;6.88;;
47778;SDS011;33538;48.432;11.350;2023-08-30T03:14:13;9.75;;;6.65;;
47778;SDS011;33538;48.432;11.350;2023-08-30T03:16:40;11.50;;;6.95;;
47778;SDS011;33538;48.432;11.350;2023-08-30T03:19:06;11.82;;;6.72;;
47778;SDS011;33538;48.432;11.350;2023-08-30T03:21:33;12.15;;;6.88;;
47778;SDS011;33538;48.432;11.350;2023-08-30T03:24:00;12.05;;;7.10;;
47778;SDS011;33538;48.432;11.350;2023-08-30T03:26:28;10.70;;;6.90;;
47778;SDS011;33538;48.432;11.350;2023-08-30T03:28:55;9.40;;;6.43;;
47778;SDS011;33538;48.432;11.350;2023-08-30T03:31:22;12.30;;;7.13;;
47778;SDS011;33538;48.432;11.350;2023-08-30T03:33:48;10.32;;;6.32;;
47778;SDS011;33538;48.432;11.350;2023-08-30T03:36:16;10.48;;;6.43;;
47778;SDS011;33538;48.432;11.350;2023-08-30T03:38:44;11.05;;;6.45;;
47778;SDS011;33538;48.432;11.350;2023-08-30T03:41:12;10.73;;;6.60;;
47778;SDS011;33538;48.432;11.350;2023-08-30T03:43:40;10.77;;;6.70;;
47778;SDS011;33538;48.432;11.350;2023-08-30T03:46:07;12.27;;;6.60;;
47778;SDS011;33538;48.432;11.350;2023-08-30T03:48:33;9.88;;;6.95;;
47778;SDS011;33538;48.432;11.350;2023-08-30T03:51:00;9.85;;;6.47;;
47778;SDS011;33538;48.432;11.350;2023-08-30T03:53:27;9.77;;;6.18;;
47778;SDS011;33538;48.432;11.350;2023-08-30T03:55:54;12.45;;;7.10;;
47778;SDS011;33538;48.432;11.350;2023-08-30T03:58:21;11.23;;;7.20;;
47778;SDS011;33538;48.432;11.350;2023-08-30T04:00:49;10.60;;;6.85;;
47778;SDS011;33538;48.432;11.350;2023-08-30T04:03:16;11.77;;;6.90;;
47778;SDS011;33538;48.432;11.350;2023-08-30T04:05:43;11.00;;;6.63;;
47778;SDS011;33538;48.432;11.350;2023-08-30T04:08:09;11.52;;;6.88;;
47778;SDS011;33538;48.432;11.350;2023-08-30T04:10:37;11.23;;;6.90;;
47778;SDS011;33538;48.432;11.350;2023-08-30T04:13:05;11.82;;;6.75;;
47778;SDS011;33538;48.432;11.350;2023-08-30T04:15:33;10.30;;;6.20;;
47778;SDS011;33538;48.432;11.350;2023-08-30T04:18:02;10.45;;;6.70;;
47778;SDS011;33538;48.432;11.350;2023-08-30T04:20:29;9.32;;;6.03;;
47778;SDS011;33538;48.432;11.350;2023-08-30T04:22:56;11.13;;;7.00;;
47778;SDS011;33538;48.432;11.350;2023-08-30T04:25:23;11.93;;;6.70;;
47778;SDS011;33538;48.432;11.350;2023-08-30T04:27:51;10.93;;;7.10;;
47778;SDS011;33538;48.432;11.350;2023-08-30T04:30:18;11.27;;;7.22;;
47778;SDS011;33538;48.432;11.350;2023-08-30T04:32:45;10.95;;;6.68;;
47778;SDS011;33538;48.432;11.350;2023-08-30T04:35:13;12.50;;;6.80;;
47778;SDS011;33538;48.432;11.350;2023-08-30T04:37:40;11.70;;;7.45;;
47778;SDS011;33538;48.432;11.350;2023-08-30T04:40:07;11.88;;;6.50;;
47778;SDS011;33538;48.432;11.350;2023-08-30T04:42:34;10.93;;;6.72;;
47778;SDS011;33538;48.432;11.350;2023-08-30T04:45:01;13.02;;;6.95;;
47778;SDS011;33538;48.432;11.350;2023-08-30T04:47:28;10.98;;;6.20;;
47778;SDS011;33538;48.432;11.350;2023-08-30T04:49:56;10.57;;;6.32;;
47778;SDS011;33538;48.432;11.350;2023-08-30T04:52:24;11.18;;;6.22;;
47778;SDS011;33538;48.432;11.350;2023-08-30T04:54:51;12.23;;;6.78;;
47778;SDS011;33538;48.432;11.350;2023-08-30T04:57:18;10.35;;;6.10;;
47778;SDS011;33538;48.432;11.350;2023-08-30T04:59:44;11.60;;;6.85;;
47778;SDS011;33538;48.432;11.350;2023-08-30T05:02:12;11.27;;;6.93;;
47778;SDS011;33538;48.432;11.350;2023-08-30T05:04:38;17.13;;;6.88;;
47778;SDS011;33538;48.432;11.350;2023-08-30T05:07:05;12.45;;;7.18;;
47778;SDS011;33538;48.432;11.350;2023-08-30T05:09:34;11.60;;;6.90;;
47778;SDS011;33538;48.432;11.350;2023-08-30T05:12:00;13.35;;;7.40;;
47778;SDS011;33538;48.432;11.350;2023-08-30T05:14:27;11.20;;;7.03;;
47778;SDS011;33538;48.432;11.350;2023-08-30T05:16:54;10.82;;;6.28;;
47778;SDS011;33538;48.432;11.350;2023-08-30T05:19:21;11.48;;;6.85;;
47778;SDS011;33538;48.432;11.350;2023-08-30T05:21:48;10.82;;;6.35;;
47778;SDS011;33538;48.432;11.350;2023-08-30T05:24:15;11.05;;;6.82;;
47778;SDS011;33538;48.432;11.350;2023-08-30T05:26:43;11.18;;;7.05;;
47778;SDS011;33538;48.432;11.350;2023-08-30T05:29:10;11.18;;;6.63;;
47778;SDS011;33538;48.432;11.350;2023-08-30T05:31:37;13.23;;;7.00;;
47778;SDS011;33538;48.432;11.350;2023-08-30T05:34:03;10.45;;;6.43;;
47778;SDS011;33538;48.432;11.350;2023-08-30T05:36:30;11.30;;;6.80;;
47778;SDS011;33538;48.432;11.350;2023-08-30T05:38:57;12.38;;;6.40;;
47778;SDS011;33538;48.432;11.350;2023-08-30T05:41:24;11.50;;;6.55;;
47778;SDS011;33538;48.432;11.350;2023-08-30T05:43:52;11.88;;;6.80;;
47778;SDS011;33538;48.432;11.350;2023-08-30T05:46:19;10.70;;;6.85;;
47778;SDS011;33538;48.432;11.350;2023-08-30T05:48:46;10.65;;;6.32;;
47778;SDS011;33538;48.432;11.350;2023-08-30T05:51:13;12.10;;;6.68;;
47778;SDS011;33538;48.432;11.350;2023-08-30T05:53:40;11.98;;;7.28;;
47778;SDS011;33538;48.432;11.350;2023-08-30T05:56:07;12.35;;;7.25;;
47778;SDS011;33538;48.432;11.350;2023-08-30T05:58:33;12.07;;;7.13;;
47778;SDS011;33538;48.432;11.350;2023-08-30T06:01:02;12.38;;;7.18;;
47778;SDS011;33538;48.432;11.350;2023-08-30T06:03:31;11.68;;;6.93;;
47778;SDS011;33538;48.432;11.350;2023-08-30T06:05:57;14.75;;;7.40;;
47778;SDS011;33538;48.432;11.350;2023-08-30T06:08:24;12.63;;;7.45;;
47778;SDS011;33538;48.432;11.350;2023-08-30T06:10:51;11.00;;;6.82;;
47778;SDS011;33538;48.432;11.350;2023-08-30T06:13:18;11.15;;;6.72;;
47778;SDS011;33538;48.432;11.350;2023-08-30T06:15:45;12.57;;;7.22;;
47778;SDS011;33538;48.432;11.350;2023-08-30T06:18:18;14.32;;;7.60;;
47778;SDS011;33538;48.432;11.350;2023-08-30T06:20:45;11.32;;;6.78;;
47778;SDS011;33538;48.432;11.350;2023-08-30T06:23:13;14.27;;;7.65;;
47778;SDS011;33538;48.432;11.350;2023-08-30T06:25:40;12.38;;;7.03;;
47778;SDS011;33538;48.432;11.350;2023-08-30T06:28:07;10.65;;;6.65;;
47778;SDS011;33538;48.432;11.350;2023-08-30T06:30:34;12.00;;;6.70;;
47778;SDS011;33538;48.432;11.350;2023-08-30T06:33:01;11.90;;;7.20;;
47778;SDS011;33538;48.432;11.350;2023-08-30T06:35:30;11.68;;;7.20;;
47778;SDS011;33538;48.432;11.350;2023-08-30T06:37:57;13.82;;;6.43;;
47778;SDS011;33538;48.432;11.350;2023-08-30T06:40:24;12.32;;;7.47;;
47778;SDS011;33538;48.432;11.350;2023-08-30T06:42:51;14.82;;;7.57;;
47778;SDS011;33538;48.432;11.350;2023-08-30T06:45:17;13.48;;;7.13;;
47778;SDS011;33538;48.432;11.350;2023-08-30T06:47:44;12.40;;;6.85;;
47778;SDS011;33538;48.432;11.350;2023-08-30T06:50:11;13.05;;;7.82;;
47778;SDS011;33538;48.432;11.350;2023-08-30T06:52:40;10.82;;;6.43;;
47778;SDS011;33538;48.432;11.350;2023-08-30T06:55:06;12.80;;;6.93;;
47778;SDS011;33538;48.432;11.350;2023-08-30T06:57:33;13.55;;;7.50;;
47778;SDS011;33538;48.432;11.350;2023-08-30T07:00:00;13.00;;;7.55;;
47778;SDS011;33538;48.432;11.350;2023-08-30T07:02:27;11.52;;;7.32;;
47778;SDS011;33538;48.432;11.350;2023-08-30T07:04:54;12.55;;;7.80;;
47778;SDS011;33538;48.432;11.350;2023-08-30T07:07:21;12.05;;;7.22;;
47778;SDS011;33538;48.432;11.350;2023-08-30T07:09:49;11.43;;;6.78;;
47778;SDS011;33538;48.432;11.350;2023-08-30T07:12:16;12.18;;;7.82;;
47778;SDS011;33538;48.432;11.350;2023-08-30T07:14:43;13.43;;;7.53;;
47778;SDS011;33538;48.432;11.350;2023-08-30T07:17:10;14.38;;;7.95;;
47778;SDS011;33538;48.432;11.350;2023-08-30T07:19:36;14.23;;;7.78;;
47778;SDS011;33538;48.432;11.350;2023-08-30T07:22:03;13.50;;;7.53;;
47778;SDS011;33538;48.432;11.350;2023-08-30T07:24:30;13.23;;;7.85;;
47778;SDS011;33538;48.432;11.350;2023-08-30T07:26:58;14.48;;;8.80;;
47778;SDS011;33538;48.432;11.350;2023-08-30T07:29:25;12.95;;;7.50;;
47778;SDS011;33538;48.432;11.350;2023-08-30T07:31:52;13.23;;;8.13;;
47778;SDS011;33538;48.432;11.350;2023-08-30T07:34:19;15.43;;;8.50;;
47778;SDS011;33538;48.432;11.350;2023-08-30T07:36:46;13.60;;;7.95;;
47778;SDS011;33538;48.432;11.350;2023-08-30T07:39:13;14.32;;;7.57;;
47778;SDS011;33538;48.432;11.350;2023-08-30T07:41:40;15.02;;;8.55;;
47778;SDS011;33538;48.432;11.350;2023-08-30T07:44:08;14.77;;;8.20;;
47778;SDS011;33538;48.432;11.350;2023-08-30T07:46:35;15.23;;;8.57;;
47778;SDS011;33538;48.432;11.350;2023-08-30T07:49:02;15.95;;;8.23;;
47778;SDS011;33538;48.432;11.350;2023-08-30T07:51:29;13.30;;;7.68;;
47778;SDS011;33538;48.432;11.350;2023-08-30T07:53:56;16.85;;;8.25;;
47778;SDS011;33538;48.432;11.350;2023-08-30T07:56:23;16.42;;;8.60;;
47778;SDS011;33538;48.432;11.350;2023-08-30T07:58:50;16.60;;;8.13;;
47778;SDS011;33538;48.432;11.350;2023-08-30T08:01:18;14.18;;;7.95;;
47778;SDS011;33538;48.432;11.350;2023-08-30T08:03:45;14.07;;;7.03;;
47778;SDS011;33538;48.432;11.350;2023-08-30T08:06:31;11.85;;;7.20;;
47778;SDS011;33538;48.432;11.350;2023-08-30T08:09:00;15.57;;;7.45;;
47778;SDS011;33538;48.432;11.350;2023-08-30T08:11:26;18.63;;;8.23;;
47778;SDS011;33538;48.432;11.350;2023-08-30T08:13:53;13.95;;;7.95;;
47778;SDS011;33538;48.432;11.350;2023-08-30T08:16:21;13.18;;;8.27;;
47778;SDS011;33538;48.432;11.350;2023-08-30T08:18:48;13.52;;;8.20;;
47778;SDS011;33538;48.432;11.350;2023-08-30T08:21:15;13.23;;;7.97;;
47778;SDS011;33538;48.432;11.350;2023-08-30T08:23:42;15.02;;;8.07;;
47778;SDS011;33538;48.432;11.350;2023-08-30T08:26:09;13.82;;;7.85;;
47778;SDS011;33538;48.432;11.350;2023-08-30T08:28:36;13.48;;;7.45;;
47778;SDS011;33538;48.432;11.350;2023-08-30T08:31:02;14.10;;;7.97;;
47778;SDS011;33538;48.432;11.350;2023-08-30T08:33:31;13.82;;;7.93;;
47778;SDS011;33538;48.432;11.350;2023-08-30T08:35:57;14.43;;;8.90;;
47778;SDS011;33538;48.432;11.350;2023-08-30T08:38:24;17.02;;;9.25;;
47778;SDS011;33538;48.432;11.350;2023-08-30T08:40:51;17.38;;;10.23;;
47778;SDS011;33538;48.432;11.350;2023-08-30T08:43:27;16.23;;;8.70;;
47778;SDS011;33538;48.432;11.350;2023-08-30T08:45:55;13.52;;;8.57;;
47778;SDS011;33538;48.432;11.350;2023-08-30T08:48:25;16.70;;;9.60;;
47778;SDS011;33538;48.432;11.350;2023-08-30T08:50:56;16.15;;;8.48;;
47778;SDS011;33538;48.432;11.350;2023-08-30T08:53:23;14.32;;;8.02;;
47778;SDS011;33538;48.432;11.350;2023-08-30T08:55:50;12.93;;;7.75;;
47778;SDS011;33538;48.432;11.350;2023-08-30T08:58:18;14.13;;;8.50;;
47778;SDS011;33538;48.432;11.350;2023-08-30T09:00:45;12.50;;;7.75;;
47778;SDS011;33538;48.432;11.350;2023-08-30T09:03:12;15.23;;;8.23;;
47778;SDS011;33538;48.432;11.350;2023-08-30T09:05:42;14.65;;;9.40;;
47778;SDS011;33538;48.432;11.350;2023-08-30T09:08:10;14.65;;;8.45;;
47778;SDS011;33538;48.432;11.350;2023-08-30T09:10:38;15.07;;;8.80;;
47778;SDS011;33538;48.432;11.350;2023-08-30T09:13:05;10.38;;;7.35;;
47778;SDS011;33538;48.432;11.350;2023-08-30T09:15:32;12.18;;;7.68;;
47778;SDS011;33538;48.432;11.350;2023-08-30T09:18:00;13.10;;;8.00;;
47778;SDS011;33538;48.432;11.350;2023-08-30T09:20:27;10.77;;;7.20;;
47778;SDS011;33538;48.432;11.350;2023-08-30T09:22:53;15.65;;;7.30;;
47778;SDS011;33538;48.432;11.350;2023-08-30T09:25:25;12.88;;;6.97;;
47778;SDS011;33538;48.432;11.350;2023-08-30T09:27:56;12.32;;;7.72;;
47778;SDS011;33538;48.432;11.350;2023-08-30T09:30:23;12.52;;;8.45;;
47778;SDS011;33538;48.432;11.350;2023-08-30T09:32:50;13.48;;;8.52;;
47778;SDS011;33538;48.432;11.350;2023-08-30T09:35:17;16.23;;;8.88;;
47778;SDS011;33538;48.432;11.350;2023-08-30T09:37:44;13.00;;;7.97;;
47778;SDS011;33538;48.432;11.350;2023-08-30T09:40:11;11.73;;;8.15;;
47778;SDS011;33538;48.432;11.350;2023-08-30T09:42:41;12.55;;;7.90;;
47778;SDS011;33538;48.432;11.350;2023-08-30T09:45:17;12.85;;;7.47;;
47778;SDS011;33538;48.432;11.350;2023-08-30T09:47:46;9.07;;;6.38;;
47778;SDS011;33538;48.432;11.350;2023-08-30T09:50:13;10.35;;;6.88;;
47778;SDS011;33538;48.432;11.350;2023-08-30T09:52:43;8.02;;;5.70;;
47778;SDS011;33538;48.432;11.350;2023-08-30T09:55:10;10.45;;;6.10;;
47778;SDS011;33538;48.432;11.350;2023-08-30T09:57:37;9.65;;;6.38;;
47778;SDS011;33538;48.432;11.350;2023-08-30T10:00:08;9.02;;;6.93;;
47778;SDS011;33538;48.432;11.350;2023-08-30T10:02:36;10.25;;;5.90;;
47778;SDS011;33538;48.432;11.350;2023-08-30T10:05:06;8.52;;;5.80;;
47778;SDS011;33538;48.432;11.350;2023-08-30T10:07:35;8.52;;;5.78;;
47778;SDS011;33538;48.432;11.350;2023-08-30T10:10:02;6.82;;;4.75;;
47778;SDS011;33538;48.432;11.350;2023-08-30T10:12:35;7.07;;;4.57;;
47778;SDS011;33538;48.432;11.350;2023-08-30T10:15:02;8.13;;;5.60;;
47778;SDS011;33538;48.432;11.350;2023-08-30T10:17:32;8.07;;;4.82;;
47778;SDS011;33538;48.432;11.350;2023-08-30T10:20:01;9.75;;;4.97;;
47778;SDS011;33538;48.432;11.350;2023-08-30T10:22:31;8.63;;;5.43;;
47778;SDS011;33538;48.432;11.350;2023-08-30T10:25:01;5.45;;;4.18;;
47778;SDS011;33538;48.432;11.350;2023-08-30T10:27:50;5.13;;;3.72;;
47778;SDS011;33538;48.432;11.350;2023-08-30T10:30:18;9.13;;;4.68;;
47778;SDS011;33538;48.432;11.350;2023-08-30T10:32:48;5.85;;;3.92;;
47778;SDS011;33538;48.432;11.350;2023-08-30T10:35:16;6.88;;;4.25;;
47778;SDS011;33538;48.432;11.350;2023-08-30T10:37:53;6.85;;;4.70;;
47778;SDS011;33538;48.432;11.350;2023-08-30T10:40:20;6.60;;;3.85;;
47778;SDS011;33538;48.432;11.350;2023-08-30T10:42:57;5.35;;;4.15;;
47778;SDS011;33538;48.432;11.350;2023-08-30T10:45:25;7.03;;;4.32;;
47778;SDS011;33538;48.432;11.350;2023-08-30T10:47:55;6.78;;;4.35;;
47778;SDS011;33538;48.432;11.350;2023-08-30T10:50:28;8.27;;;4.50;;
47778;SDS011;33538;48.432;11.350;2023-08-30T10:52:56;7.18;;;4.45;;
47778;SDS011;33538;48.432;11.350;2023-08-30T10:55:23;6.63;;;4.20;;
47778;SDS011;33538;48.432;11.350;2023-08-30T10:57:57;6.97;;;4.82;;
47778;SDS011;33538;48.432;11.350;2023-08-30T11:00:29;6.22;;;4.75;;
47778;SDS011;33538;48.432;11.350;2023-08-30T11:02:58;5.80;;;4.35;;
47778;SDS011;33538;48.432;11.350;2023-08-30T11:05:25;7.75;;;4.55;;
47778;SDS011;33538;48.432;11.350;2023-08-30T11:07:53;7.03;;;4.72;;
47778;SDS011;33538;48.432;11.350;2023-08-30T11:10:20;6.20;;;4.70;;
47778;SDS011;33538;48.432;11.350;2023-08-30T11:12:47;7.25;;;4.50;;
47778;SDS011;33538;48.432;11.350;2023-08-30T11:15:14;7.40;;;4.75;;
47778;SDS011;33538;48.432;11.350;2023-08-30T11:17:42;5.75;;;5.05;;
47778;SDS011;33538;48.432;11.350;2023-08-30T11:20:11;6.63;;;4.53;;
47778;SDS011;33538;48.432;11.350;2023-08-30T11:22:40;9.00;;;5.43;;
47778;SDS011;33538;48.432;11.350;2023-08-30T11:25:09;7.30;;;4.80;;
47778;SDS011;33538;48.432;11.350;2023-08-30T11:27:36;7.18;;;4.97;;
47778;SDS011;33538;48.432;11.350;2023-08-30T11:30:03;8.25;;;5.00;;
47778;SDS011;33538;48.432;11.350;2023-08-30T11:32:32;9.02;;;4.70;;
47778;SDS011;33538;48.432;11.350;2023-08-30T11:34:59;6.78;;;4.47;;
47778;SDS011;33538;48.432;11.350;2023-08-30T11:37:27;7.68;;;5.15;;
47778;SDS011;33538;48.432;11.350;2023-08-30T11:39:55;7.15;;;4.90;;
47778;SDS011;33538;48.432;11.350;2023-08-30T11:42:23;8.50;;;4.85;;
47778;SDS011;33538;48.432;11.350;2023-08-30T11:44:50;7.07;;;5.22;;
47778;SDS011;33538;48.432;11.350;2023-08-30T11:47:20;7.13;;;4.50;;
47778;SDS011;33538;48.432;11.350;2023-08-30T11:49:48;6.93;;;4.60;;
47778;SDS011;33538;48.432;11.350;2023-08-30T11:52:15;7.03;;;4.50;;
47778;SDS011;33538;48.432;11.350;2023-08-30T11:54:44;6.50;;;4.47;;
47778;SDS011;33538;48.432;11.350;2023-08-30T11:57:12;7.97;;;4.45;;
47778;SDS011;33538;48.432;11.350;2023-08-30T11:59:39;8.18;;;4.88;;
47778;SDS011;33538;48.432;11.350;2023-08-30T12:02:09;6.25;;;4.47;;
47778;SDS011;33538;48.432;11.350;2023-08-30T12:04:39;8.20;;;5.30;;
47778;SDS011;33538;48.432;11.350;2023-08-30T12:07:06;7.60;;;5.25;;
47778;SDS011;33538;48.432;11.350;2023-08-30T12:09:33;7.72;;;5.55;;
47778;SDS011;33538;48.432;11.350;2023-08-30T12:12:08;7.45;;;5.05;;
47778;SDS011;33538;48.432;11.350;2023-08-30T12:14:36;4.78;;;3.75;;
47778;SDS011;33538;48.432;11.350;2023-08-30T12:17:03;6.57;;;4.78;;
47778;SDS011;33538;48.432;11.350;2023-08-30T12:19:30;5.68;;;4.25;;
47778;SDS011;33538;48.432;11.350;2023-08-30T12:22:02;7.18;;;4.07;;
47778;SDS011;33538;48.432;11.350;2023-08-30T12:24:39;5.05;;;3.58;;
47778;SDS011;33538;48.432;11.350;2023-08-30T12:27:08;5.82;;;3.55;;
47778;SDS011;33538;48.432;11.350;2023-08-30T12:29:35;5.63;;;3.72;;
47778;SDS011;33538;48.432;11.350;2023-08-30T12:32:02;4.80;;;3.92;;
47778;SDS011;33538;48.432;11.350;2023-08-30T12:34:30;5.45;;;4.05;;
47778;SDS011;33538;48.432;11.350;2023-08-30T12:36:56;5.90;;;3.88;;
47778;SDS011;33538;48.432;11.350;2023-08-30T12:39:23;4.90;;;3.78;;
47778;SDS011;33538;48.432;11.350;2023-08-30T12:41:50;4.80;;;3.25;;
47778;SDS011;33538;48.432;11.350;2023-08-30T12:44:18;5.60;;;3.78;;
47778;SDS011;33538;48.432;11.350;2023-08-30T12:46:45;4.40;;;2.83;;
47778;SDS011;33538;48.432;11.350;2023-08-30T12:49:12;3.85;;;3.28;;
47778;SDS011;33538;48.432;11.350;2023-08-30T12:51:39;3.20;;;2.53;;
47778;SDS011;33538;48.432;11.350;2023-08-30T12:54:05;3.97;;;2.60;;
47778;SDS011;33538;48.432;11.350;2023-08-30T12:56:32;2.97;;;2.33;;
47778;SDS011;33538;48.432;11.350;2023-08-30T12:58:59;2.47;;;1.75;;
47778;SDS011;33538;48.432;11.350;2023-08-30T13:01:27;3.17;;;2.45;;
47778;SDS011;33538;48.432;11.350;2023-08-30T13:03:54;3.38;;;2.08;;
47778;SDS011;33538;48.432;11.350;2023-08-30T13:06:21;2.15;;;1.85;;
47778;SDS011;33538;48.432;11.350;2023-08-30T13:08:48;4.38;;;2.40;;
47778;SDS011;33538;48.432;11.350;2023-08-30T13:11:15;3.55;;;2.35;;
47778;SDS011;33538;48.432;11.350;2023-08-30T13:13:41;3.42;;;2.53;;
47778;SDS011;33538;48.432;11.350;2023-08-30T13:16:08;2.70;;;2.20;;
47778;SDS011;33538;48.432;11.350;2023-08-30T13:18:36;3.72;;;2.63;;
47778;SDS011;33538;48.432;11.350;2023-08-30T13:21:03;2.88;;;2.28;;
47778;SDS011;33538;48.432;11.350;2023-08-30T13:23:30;2.50;;;2.22;;
47778;SDS011;33538;48.432;11.350;2023-08-30T13:25:57;3.08;;;2.05;;
47778;SDS011;33538;48.432;11.350;2023-08-30T13:28:24;3.42;;;1.70;;
47778;SDS011;33538;48.432;11.350;2023-08-30T13:30:50;2.92;;;2.03;;
47778;SDS011;33538;48.432;11.350;2023-08-30T13:33:18;2.92;;;2.22;;
47778;SDS011;33538;48.432;11.350;2023-08-30T13:35:49;3.30;;;2.15;;
47778;SDS011;33538;48.432;11.350;2023-08-30T13:38:16;4.05;;;2.20;;
47778;SDS011;33538;48.432;11.350;2023-08-30T13:40:43;3.25;;;1.90;;
47778;SDS011;33538;48.432;11.350;2023-08-30T13:43:10;1.90;;;1.70;;
47778;SDS011;33538;48.432;11.350;2023-08-30T13:45:37;3.20;;;2.33;;
47778;SDS011;33538;48.432;11.350;2023-08-30T13:48:04;2.70;;;2.08;;
47778;SDS011;33538;48.432;11.350;2023-08-30T13:50:31;1.67;;;1.55;;
47778;SDS011;33538;48.432;11.350;2023-08-30T13:52:59;3.35;;;2.13;;
47778;SDS011;33538;48.432;11.350;2023-08-30T13:55:26;3.40;;;2.40;;
47778;SDS011;33538;48.432;11.350;2023-08-30T13:57:53;6.18;;;2.40;;
47778;SDS011;33538;48.432;11.350;2023-08-30T14:00:20;2.05;;;1.75;;
47778;SDS011;33538;48.432;11.350;2023-08-30T14:02:47;2.65;;;2.13;;
47778;SDS011;33538;48.432;11.350;2023-08-30T14:05:14;2.65;;;2.10;;
47778;SDS011;33538;48.432;11.350;2023-08-30T14:07:41;4.03;;;2.60;;
47778;SDS011;33538;48.432;11.350;2023-08-30T14:10:09;2.35;;;1.90;;
47778;SDS011;33538;48.432;11.350;2023-08-30T14:12:36;3.30;;;2.17;;
47778;SDS011;33538;48.432;11.350;2023-08-30T14:15:03;2.60;;;1.95;;
47778;SDS011;33538;48.432;11.350;2023-08-30T14:17:30;2.25;;;1.90;;
47778;SDS011;33538;48.432;11.350;2023-08-30T14:19:57;2.80;;;2.20;;
47778;SDS011;33538;48.432;11.350;2023-08-30T14:22:24;4.35;;;2.40;;
47778;SDS011;33538;48.432;11.350;2023-08-30T14:24:51;2.40;;;1.65;;
47778;SDS011;33538;48.432;11.350;2023-08-30T14:27:24;2.25;;;2.05;;
47778;SDS011;33538;48.432;11.350;2023-08-30T14:29:51;5.55;;;2.67;;
47778;SDS011;33538;48.432;11.350;2023-08-30T14:32:18;3.13;;;1.95;;